Time;durP1;ratioP1;P1;durP2;ratioP2;P2;SDS_P1;SDS_P2;PMS_P1;PMS_P2;Temp;Humidity;BMP_temperature;BMP_pressure;BME280_temperature;BME280_humidity;BME280_pressure;Samples;Min_cycle;Max_cycle;Signal;HPM_P1;HPM_P2
2022/09/09 00:00:23;;;;;;;5.10;1.63;;;24.50;99.90;;;;;;6273170;22;20175;-92
2022/09/09 00:03:02;;;;;;;5.43;1.57;;;24.30;99.90;;;;;;6270661;22;20176;-94
2022/09/09 00:05:44;;;;;;;5.50;1.63;;;24.00;99.90;;;;;;6272755;22;20160;-93
2022/09/09 00:08:22;;;;;;;5.27;1.67;;;23.70;99.90;;;;;;6272737;22;20194;-93
2022/09/09 00:11:00;;;;;;;3.97;1.60;;;23.40;99.90;;;;;;6272942;22;20164;-93
2022/09/09 00:13:36;;;;;;;5.80;1.60;;;23.00;99.90;;;;;;6272041;22;20293;-93
2022/09/09 00:16:17;;;;;;;3.60;1.53;;;22.80;99.90;;;;;;6273317;22;20176;-94
2022/09/09 00:18:57;;;;;;;3.97;1.40;;;22.60;99.90;;;;;;6273731;22;20175;-95
2022/09/09 00:21:35;;;;;;;7.20;1.70;;;22.40;99.90;;;;;;6272678;22;20197;-96
2022/09/09 00:24:14;;;;;;;4.70;1.50;;;22.30;99.90;;;;;;6272748;22;20250;-95
2022/09/09 00:26:50;;;;;;;5.33;1.57;;;22.20;99.90;;;;;;6256202;23;20167;-95
2022/09/09 00:29:32;;;;;;;6.53;1.77;;;22.10;99.90;;;;;;6257176;22;20175;-94
2022/09/09 00:32:13;;;;;;;4.93;1.40;;;22.00;99.90;;;;;;6255189;22;20187;-94
2022/09/09 00:34:53;;;;;;;6.53;1.70;;;21.90;99.90;;;;;;6253712;23;20239;-93
2022/09/09 00:37:27;;;;;;;5.17;1.73;;;21.80;99.90;;;;;;6254072;22;20175;-91
2022/09/09 00:40:10;;;;;;;6.10;1.97;;;21.70;99.90;;;;;;6253276;23;20180;-94
2022/09/09 00:42:45;;;;;;;5.70;2.20;;;21.60;99.90;;;;;;6253819;23;20182;-94
2022/09/09 00:45:34;;;;;;;7.13;2.80;;;21.40;99.90;;;;;;6251500;23;20175;-94
2022/09/09 00:48:11;;;;;;;6.97;2.10;;;21.40;99.90;;;;;;6254530;23;20179;-93
2022/09/09 00:50:52;;;;;;;6.43;1.90;;;21.40;99.90;;;;;;6253666;23;20178;-91
2022/09/09 00:53:37;;;;;;;6.47;2.03;;;21.40;99.90;;;;;;6255441;23;20267;-91
2022/09/09 00:56:16;;;;;;;6.50;2.30;;;21.40;99.90;;;;;;6252301;23;20183;-91
2022/09/09 00:59:02;;;;;;;6.47;2.50;;;21.30;99.90;;;;;;6250951;23;20673;-91
2022/09/09 01:01:35;;;;;;;8.57;2.37;;;21.40;99.90;;;;;;6251302;23;20175;-94
2022/09/09 01:04:12;;;;;;;7.30;2.20;;;21.40;99.90;;;;;;6250648;23;20247;-93
2022/09/09 01:06:44;;;;;;;6.90;2.33;;;21.40;99.90;;;;;;6251439;23;20178;-93
2022/09/09 01:09:23;;;;;;;6.53;2.27;;;21.40;99.90;;;;;;6254683;22;20178;-92
2022/09/09 01:12:03;;;;;;;8.37;2.53;;;21.50;99.90;;;;;;6252763;23;20485;-94
2022/09/09 01:14:44;;;;;;;8.40;2.57;;;21.40;99.90;;;;;;6226973;23;20172;-93
2022/09/09 01:17:20;;;;;;;8.97;2.77;;;21.30;99.90;;;;;;6255454;23;20235;-93
2022/09/09 01:20:09;;;;;;;8.60;2.40;;;21.40;99.90;;;;;;6233661;23;20187;-91
2022/09/09 01:22:47;;;;;;;7.00;2.50;;;21.40;99.90;;;;;;6272055;22;20199;-94
2022/09/09 01:25:30;;;;;;;5.20;2.13;;;21.40;99.90;;;;;;6272471;22;20164;-92
2022/09/09 01:28:13;;;;;;;7.00;2.20;;;21.10;99.90;;;;;;6271163;22;20177;-92
2022/09/09 01:30:44;;;;;;;7.43;2.50;;;21.00;99.90;;;;;;6268698;22;20171;-93
2022/09/09 01:33:18;;;;;;;6.37;2.63;;;21.10;99.90;;;;;;6264171;23;20196;-92
2022/09/09 01:35:55;;;;;;;7.60;2.37;;;20.90;99.90;;;;;;6255751;23;20283;-94
2022/09/09 01:38:27;;;;;;;8.80;2.13;;;20.90;99.90;;;;;;6251319;23;20250;-93
2022/09/09 01:40:58;;;;;;;6.93;2.13;;;20.80;99.90;;;;;;6251183;23;20180;-94
2022/09/09 01:43:32;;;;;;;6.30;1.97;;;20.70;99.90;;;;;;6250447;23;20176;-94
2022/09/09 01:46:04;;;;;;;7.63;2.63;;;20.60;99.90;;;;;;6252218;23;20172;-90
2022/09/09 01:48:35;;;;;;;7.23;2.50;;;20.60;99.90;;;;;;6253168;23;20172;-91
2022/09/09 01:51:07;;;;;;;7.50;2.57;;;20.50;99.90;;;;;;6251872;23;20194;-91
2022/09/09 01:53:39;;;;;;;6.33;2.40;;;20.40;99.90;;;;;;6253805;23;20653;-92
2022/09/09 01:56:21;;;;;;;5.27;2.10;;;20.30;99.90;;;;;;6261452;22;20180;-93
2022/09/09 01:59:16;;;;;;;8.93;2.50;;;20.20;99.90;;;;;;6253936;23;20203;-92
2022/09/09 02:02:03;;;;;;;8.50;2.50;;;20.20;99.90;;;;;;6252979;23;20191;-92
2022/09/09 02:07:44;;;;;;;6.47;2.30;;;19.80;99.90;;;;;;6264028;23;20176;-93
2022/09/09 02:10:34;;;;;;;8.13;2.17;;;19.70;99.90;;;;;;6246981;22;20212;-92
2022/09/09 02:13:11;;;;;;;11.90;2.90;;;19.60;99.90;;;;;;6227367;23;20259;-93
2022/09/09 02:15:57;;;;;;;6.13;1.90;;;19.50;99.90;;;;;;6224990;23;20176;-92
2022/09/09 02:18:32;;;;;;;7.43;2.13;;;19.30;99.90;;;;;;6226497;23;20251;-92
2022/09/09 02:21:05;;;;;;;6.20;2.20;;;19.20;99.90;;;;;;6225802;23;20176;-92
2022/09/09 02:23:39;;;;;;;6.30;2.07;;;19.20;99.90;;;;;;6224538;23;20236;-92
2022/09/09 02:26:21;;;;;;;6.37;2.10;;;19.10;99.90;;;;;;6231031;23;20172;-92
2022/09/09 02:29:06;;;;;;;6.43;2.30;;;19.00;99.90;;;;;;6230481;23;20199;-93
2022/09/09 02:31:46;;;;;;;8.63;1.93;;;18.90;99.90;;;;;;6225758;23;20188;-92
2022/09/09 02:34:21;;;;;;;5.80;1.90;;;18.70;99.90;;;;;;6227699;23;20227;-92
2022/09/09 02:39:44;;;;;;;6.83;1.90;;;18.50;99.90;;;;;;6224630;23;20176;-92
2022/09/09 02:42:19;;;;;;;7.10;1.80;;;18.40;99.90;;;;;;6221245;23;20187;-93
2022/09/09 02:44:51;;;;;;;7.10;1.97;;;18.30;99.90;;;;;;6230437;23;20180;-93
2022/09/09 02:50:35;;;;;;;5.50;1.53;;;18.20;99.90;;;;;;6228268;23;20275;-93
2022/09/09 02:53:16;;;;;;;4.10;1.60;;;18.20;99.90;;;;;;6232778;23;20177;-91
2022/09/09 02:55:54;;;;;;;5.63;1.93;;;18.10;99.90;;;;;;6230980;23;20191;-93
2022/09/09 02:58:25;;;;;;;9.70;1.70;;;18.00;99.90;;;;;;6220009;23;20179;-93
2022/09/09 03:01:00;;;;;;;5.87;1.70;;;17.90;99.90;;;;;;6232191;23;20203;-93
2022/09/09 03:03:46;;;;;;;9.93;2.53;;;17.80;99.90;;;;;;6230993;23;20191;-93
2022/09/09 03:06:23;;;;;;;7.30;1.97;;;17.70;99.90;;;;;;6227197;23;20176;-93
2022/09/09 03:09:00;;;;;;;7.23;1.83;;;17.70;99.90;;;;;;6231958;23;20196;-93
2022/09/09 03:17:45;;;;;;;6.00;2.00;;;17.40;99.90;;;;;;6234256;23;20161;-93
2022/09/09 03:20:20;;;;;;;5.53;2.03;;;17.30;99.90;;;;;;6226971;23;20177;-93
2022/09/09 03:22:52;;;;;;;5.60;2.37;;;17.30;99.90;;;;;;6220144;23;20184;-93
2022/09/09 03:25:24;;;;;;;7.30;2.17;;;17.20;99.90;;;;;;6222282;23;20196;-93
2022/09/09 03:27:56;;;;;;;8.50;2.50;;;17.10;99.90;;;;;;6224836;23;20683;-93
2022/09/09 03:30:29;;;;;;;8.90;2.77;;;17.00;99.90;;;;;;6222223;23;20351;-92
2022/09/09 03:33:02;;;;;;;4.77;2.33;;;17.00;99.90;;;;;;6220974;23;20171;-93
2022/09/09 03:35:35;;;;;;;6.73;2.17;;;16.90;99.90;;;;;;6221855;23;20200;-93
2022/09/09 03:38:06;;;;;;;9.23;2.00;;;16.90;99.90;;;;;;6221758;23;20176;-93
2022/09/09 03:40:40;;;;;;;6.23;3.00;;;16.90;99.90;;;;;;6222210;23;20251;-93
2022/09/09 03:43:11;;;;;;;6.67;3.07;;;16.80;99.90;;;;;;6228469;23;20203;-93
2022/09/09 03:45:44;;;;;;;5.30;2.47;;;16.70;99.90;;;;;;6235256;23;20236;-92
2022/09/09 03:48:15;;;;;;;4.80;2.53;;;16.60;99.90;;;;;;6229374;23;20172;-92
2022/09/09 03:50:53;;;;;;;7.03;1.97;;;16.60;99.90;;;;;;6224379;23;20183;-92
2022/09/09 03:53:27;;;;;;;6.43;2.37;;;16.50;99.90;;;;;;6222978;23;20161;-91
2022/09/09 03:56:02;;;;;;;5.37;2.30;;;16.50;99.90;;;;;;6222380;23;20195;-91
2022/09/09 04:01:22;;;;;;;5.33;1.93;;;16.40;99.90;;;;;;6233168;23;20180;-92
2022/09/09 04:03:54;;;;;;;5.93;1.70;;;16.40;99.90;;;;;;6228573;23;20184;-92
2022/09/09 04:06:29;;;;;;;6.80;1.90;;;16.40;99.90;;;;;;6224694;23;20184;-91
2022/09/09 04:09:06;;;;;;;6.07;1.70;;;16.30;99.90;;;;;;6225533;23;20194;-91
2022/09/09 04:11:51;;;;;;;7.73;2.13;;;16.40;99.90;;;;;;6207304;23;20224;-92
2022/09/09 04:14:23;;;;;;;6.33;2.10;;;16.30;99.90;;;;;;6242875;22;20188;-92
2022/09/09 04:17:05;;;;;;;6.17;2.20;;;16.20;99.90;;;;;;6243061;22;20236;-91
2022/09/09 04:19:50;;;;;;;4.83;1.80;;;16.20;99.90;;;;;;6217706;22;20184;-92
2022/09/09 04:22:24;;;;;;;3.33;1.50;;;16.20;99.90;;;;;;6241724;22;20227;-92
2022/09/09 04:24:55;;;;;;;4.03;1.47;;;16.20;99.90;;;;;;6242952;22;20228;-92
2022/09/09 04:27:26;;;;;;;6.03;1.80;;;16.10;99.90;;;;;;6242703;22;20393;-92
2022/09/09 04:29:57;;;;;;;7.40;2.70;;;16.10;99.90;;;;;;6242878;22;20172;-92
2022/09/09 04:32:28;;;;;;;4.27;1.33;;;16.00;99.90;;;;;;6241588;22;20180;-92
2022/09/09 04:34:59;;;;;;;3.90;1.77;;;16.00;99.90;;;;;;6240751;22;20194;-92
2022/09/09 04:37:34;;;;;;;5.37;1.60;;;16.00;99.90;;;;;;6239044;22;20172;-91
2022/09/09 04:40:09;;;;;;;3.07;1.20;;;16.00;99.90;;;;;;6236192;23;20199;-92
2022/09/09 04:42:43;;;;;;;2.57;1.63;;;15.90;99.90;;;;;;6225260;23;20171;-92
2022/09/09 04:45:15;;;;;;;6.23;1.90;;;15.90;99.90;;;;;;6226131;23;20545;-92
2022/09/09 04:47:47;;;;;;;6.03;1.60;;;15.80;99.90;;;;;;6224894;23;20332;-92
2022/09/09 04:50:18;;;;;;;5.20;1.80;;;15.70;99.90;;;;;;6225162;23;20172;-92
2022/09/09 04:52:51;;;;;;;6.40;1.87;;;15.70;99.90;;;;;;6223347;23;20251;-92
2022/09/09 04:55:23;;;;;;;4.87;1.63;;;15.70;99.90;;;;;;6224993;23;20283;-92
2022/09/09 04:57:54;;;;;;;5.80;1.80;;;15.60;99.90;;;;;;6224746;23;20173;-92
2022/09/09 05:00:25;;;;;;;4.93;1.57;;;15.50;99.90;;;;;;6223212;23;20173;-92
2022/09/09 05:02:57;;;;;;;4.73;1.57;;;15.50;99.90;;;;;;6222743;23;20177;-92
2022/09/09 05:05:29;;;;;;;6.37;1.73;;;15.50;99.90;;;;;;6223094;23;20188;-91
2022/09/09 05:08:06;;;;;;;7.57;2.27;;;15.50;99.90;;;;;;6223556;23;20663;-91
2022/09/09 05:10:43;;;;;;;4.33;1.97;;;15.50;99.90;;;;;;6238278;23;20190;-91
2022/09/09 05:13:26;;;;;;;4.60;2.10;;;15.40;99.90;;;;;;6231349;23;20171;-92
2022/09/09 05:15:59;;;;;;;4.40;1.90;;;15.30;99.90;;;;;;6230994;23;20195;-92
2022/09/09 05:18:30;;;;;;;5.20;1.87;;;15.20;99.90;;;;;;6251956;23;20270;-93
2022/09/09 05:21:10;;;;;;;14.07;3.13;;;15.20;99.90;;;;;;6254320;23;20192;-92
2022/09/09 05:23:57;;;;;;;8.97;2.63;;;15.10;99.90;;;;;;6260052;23;20168;-92
2022/09/09 05:26:30;;;;;;;6.47;2.20;;;15.10;99.90;;;;;;6262017;23;20175;-93
2022/09/09 05:29:05;;;;;;;6.03;3.43;;;15.00;99.90;;;;;;6261803;23;20179;-93
2022/09/09 05:31:42;;;;;;;4.03;2.57;;;14.90;99.90;;;;;;6265736;23;20186;-93
2022/09/09 05:34:15;;;;;;;5.90;2.20;;;14.90;99.90;;;;;;6237145;23;20490;-93
2022/09/09 05:36:46;;;;;;;6.40;2.10;;;14.80;99.90;;;;;;6255461;23;20206;-93
2022/09/09 05:44:47;;;;;;;4.47;1.37;;;14.70;99.90;;;;;;6222486;23;20255;-91
2022/09/09 05:47:18;;;;;;;3.67;1.40;;;14.70;99.90;;;;;;6223989;23;20218;-91
2022/09/09 05:49:49;;;;;;;3.47;1.30;;;14.70;99.90;;;;;;6220751;23;20254;-91
2022/09/09 05:52:20;;;;;;;3.63;1.47;;;14.60;99.90;;;;;;6220735;23;20196;-92
2022/09/09 05:54:52;;;;;;;4.60;1.60;;;14.60;99.90;;;;;;6223790;23;20196;-92
2022/09/09 05:57:26;;;;;;;6.13;1.80;;;14.60;99.90;;;;;;6223815;23;20169;-92
2022/09/09 05:59:57;;;;;;;3.17;1.37;;;14.50;99.90;;;;;;6225254;23;20182;-91
2022/09/09 06:02:30;;;;;;;5.53;1.57;;;14.50;99.90;;;;;;6222823;23;20243;-92
2022/09/09 06:05:01;;;;;;;6.00;1.80;;;14.50;99.90;;;;;;6222530;23;20180;-92
2022/09/09 06:07:41;;;;;;;6.33;1.63;;;14.50;99.90;;;;;;6222114;23;20176;-91
2022/09/09 06:10:26;;;;;;;7.43;1.50;;;14.50;99.90;;;;;;6231019;23;20215;-91
2022/09/09 06:13:07;;;;;;;3.50;1.57;;;14.50;99.90;;;;;;6230906;23;20243;-91
2022/09/09 06:15:54;;;;;;;6.43;1.60;;;14.60;99.90;;;;;;6227196;23;20208;-91
2022/09/09 06:18:26;;;;;;;3.17;1.17;;;14.60;99.90;;;;;;6221780;23;20284;-92
2022/09/09 06:21:04;;;;;;;5.40;1.23;;;14.60;99.90;;;;;;6220983;23;20187;-91
2022/09/09 06:23:36;;;;;;;3.97;1.20;;;14.60;99.90;;;;;;6222211;23;20199;-91
2022/09/09 06:26:08;;;;;;;3.80;1.50;;;14.60;99.90;;;;;;6227444;23;20187;-92
2022/09/09 06:28:43;;;;;;;5.10;1.37;;;14.60;99.90;;;;;;6241100;23;20195;-92
2022/09/09 06:31:17;;;;;;;7.20;1.80;;;14.50;99.90;;;;;;6237810;23;20232;-91
2022/09/09 06:33:49;;;;;;;3.33;1.23;;;14.50;99.90;;;;;;6231747;23;20180;-91
2022/09/09 06:36:22;;;;;;;2.60;1.10;;;14.40;99.90;;;;;;6233368;23;20244;-91
2022/09/09 06:38:54;;;;;;;5.97;1.70;;;14.40;99.90;;;;;;6223275;23;20835;-91
2022/09/09 06:41:27;;;;;;;4.27;1.30;;;14.30;99.90;;;;;;6221678;23;20267;-92
2022/09/09 06:44:00;;;;;;;5.33;1.90;;;14.30;99.90;;;;;;6222028;23;20184;-91
2022/09/09 06:46:33;;;;;;;4.47;1.37;;;14.30;99.90;;;;;;6221666;23;20188;-92
2022/09/09 06:49:05;;;;;;;5.57;1.60;;;14.20;99.90;;;;;;6223117;23;20196;-91
2022/09/09 06:51:42;;;;;;;5.17;1.53;;;14.20;99.90;;;;;;6220554;23;20177;-91
2022/09/09 06:54:14;;;;;;;4.13;1.20;;;14.20;99.90;;;;;;6223306;23;20172;-92
2022/09/09 06:56:45;;;;;;;7.70;1.40;;;14.30;99.90;;;;;;6219981;23;20211;-91
2022/09/09 06:59:19;;;;;;;5.70;1.23;;;14.30;99.90;;;;;;6222844;23;20168;-91
2022/09/09 07:01:51;;;;;;;5.10;1.37;;;14.30;99.90;;;;;;6223275;23;20829;-92
2022/09/09 07:04:25;;;;;;;3.77;1.00;;;14.40;99.90;;;;;;6223366;23;20465;-91
2022/09/09 07:06:57;;;;;;;4.90;1.20;;;14.40;99.90;;;;;;6223583;23;20177;-91
2022/09/09 07:09:31;;;;;;;2.90;0.93;;;14.40;99.90;;;;;;6223280;23;20178;-92
2022/09/09 07:12:05;;;;;;;2.70;1.17;;;14.40;99.90;;;;;;6221755;23;20223;-92
2022/09/09 07:14:38;;;;;;;5.57;1.37;;;14.50;99.90;;;;;;6222556;23;20619;-91
2022/09/09 07:17:10;;;;;;;7.13;1.43;;;14.50;99.90;;;;;;6220416;23;20246;-90
2022/09/09 07:19:41;;;;;;;6.60;1.20;;;14.50;99.90;;;;;;6221893;23;20181;-91
2022/09/09 07:22:13;;;;;;;3.10;1.23;;;14.50;99.90;;;;;;6221099;23;20176;-91
2022/09/09 07:24:44;;;;;;;4.77;1.60;;;14.50;99.90;;;;;;6223779;23;20177;-91
2022/09/09 07:27:16;;;;;;;4.47;1.30;;;14.50;99.90;;;;;;6221682;23;20179;-91
2022/09/09 07:29:49;;;;;;;5.90;1.03;;;14.40;99.90;;;;;;6219833;23;20615;-91
2022/09/09 07:32:23;;;;;;;2.57;0.90;;;14.40;99.90;;;;;;6220613;23;20179;-91
2022/09/09 07:34:54;;;;;;;1.93;1.10;;;14.40;99.90;;;;;;6223664;23;20181;-91
2022/09/09 07:37:26;;;;;;;3.37;1.07;;;14.30;99.90;;;;;;6221323;23;20540;-91
2022/09/09 07:39:58;;;;;;;7.03;1.60;;;14.30;99.90;;;;;;6220427;23;20200;-91
2022/09/09 07:42:30;;;;;;;2.47;1.23;;;14.30;99.90;;;;;;6218728;23;20196;-91
2022/09/09 07:45:04;;;;;;;1.97;0.90;;;14.30;99.90;;;;;;6220803;23;20178;-91
2022/09/09 07:47:35;;;;;;;1.90;1.10;;;14.20;99.90;;;;;;6224285;23;20187;-91
2022/09/09 07:50:09;;;;;;;5.13;1.27;;;14.10;99.90;;;;;;6233949;23;20176;-91
2022/09/09 07:52:41;;;;;;;3.00;1.20;;;14.00;99.90;;;;;;6226328;23;20184;-92
2022/09/09 07:55:13;;;;;;;7.20;1.60;;;14.00;99.90;;;;;;6221323;23;20183;-92
2022/09/09 07:57:44;;;;;;;4.27;1.20;;;14.00;99.90;;;;;;6220823;23;20691;-91
2022/09/09 08:00:26;;;;;;;4.83;1.47;;;14.00;99.90;;;;;;6221036;23;20173;-92
2022/09/09 08:02:58;;;;;;;2.83;1.30;;;13.90;99.90;;;;;;6220542;23;20638;-92
2022/09/09 08:05:30;;;;;;;4.00;1.37;;;13.90;99.90;;;;;;6220078;23;20176;-92
2022/09/09 08:08:03;;;;;;;2.57;1.10;;;13.80;99.90;;;;;;6221170;23;20165;-92
2022/09/09 08:10:35;;;;;;;5.70;1.70;;;13.80;99.90;;;;;;6221228;23;20243;-92
2022/09/09 08:13:07;;;;;;;3.27;1.30;;;13.70;99.90;;;;;;6221011;23;20165;-90
2022/09/09 08:15:50;;;;;;;5.37;1.37;;;13.70;99.90;;;;;;6219755;23;20176;-92
2022/09/09 08:18:23;;;;;;;3.87;1.20;;;13.70;99.90;;;;;;6221512;23;20278;-91
2022/09/09 08:20:54;;;;;;;3.60;1.57;;;13.70;99.90;;;;;;6220957;23;20255;-93
2022/09/09 08:23:26;;;;;;;6.50;1.77;;;13.70;99.90;;;;;;6231208;23;20177;-91
2022/09/09 08:26:04;;;;;;;2.87;1.27;;;13.70;99.90;;;;;;6226608;23;20236;-91
2022/09/09 08:28:35;;;;;;;3.87;1.20;;;13.70;99.90;;;;;;6220401;23;20176;-91
2022/09/09 08:31:14;;;;;;;3.60;1.50;;;13.70;99.90;;;;;;6220425;23;20181;-92
2022/09/09 08:36:33;;;;;;;5.23;1.30;;;13.70;99.90;;;;;;6224818;23;20207;-92
2022/09/09 08:39:04;;;;;;;4.63;1.57;;;13.60;99.90;;;;;;6220816;23;20176;-92
2022/09/09 08:42:14;;;;;;;4.53;1.80;;;13.50;99.90;;;;;;6219318;23;20200;-92
2022/09/09 08:45:14;;;;;;;3.60;1.60;;;13.40;99.90;;;;;;6170769;23;20620;-92
2022/09/09 08:47:56;;;;;;;5.17;1.50;;;13.30;99.90;;;;;;6218737;23;20181;-91
2022/09/09 08:50:31;;;;;;;4.47;1.50;;;13.30;99.90;;;;;;6222549;23;20247;-91
2022/09/09 08:53:05;;;;;;;5.90;1.50;;;13.20;99.90;;;;;;6221027;23;20172;-89
2022/09/09 08:55:43;;;;;;;2.67;1.40;;;13.20;99.90;;;;;;6221846;23;20176;-91
2022/09/09 08:58:17;;;;;;;6.13;1.60;;;13.20;99.90;;;;;;6220854;23;20223;-90
2022/09/09 09:01:05;;;;;;;2.90;1.57;;;13.20;99.90;;;;;;6220694;23;20173;-91
2022/09/09 09:03:49;;;;;;;4.97;1.50;;;13.20;99.90;;;;;;6220511;23;20192;-91
2022/09/09 09:06:36;;;;;;;4.93;1.37;;;13.20;99.90;;;;;;6220116;23;20182;-91
2022/09/09 09:09:13;;;;;;;4.40;1.50;;;13.20;99.90;;;;;;6220892;23;20180;-92
2022/09/09 09:11:49;;;;;;;4.47;1.37;;;13.00;99.90;;;;;;6221289;23;20172;-92
2022/09/09 09:14:25;;;;;;;2.73;1.40;;;13.10;99.90;;;;;;6220512;23;20172;-92
2022/09/09 09:16:59;;;;;;;6.03;1.47;;;13.10;99.90;;;;;;6222303;23;20275;-92
2022/09/09 09:19:34;;;;;;;5.93;1.60;;;13.10;99.90;;;;;;6222535;23;20516;-92
2022/09/09 09:22:16;;;;;;;5.73;1.50;;;13.10;99.90;;;;;;6220494;23;20271;-91
2022/09/09 09:24:55;;;;;;;5.03;1.60;;;13.10;99.90;;;;;;6222958;23;20172;-92
2022/09/09 09:27:34;;;;;;;5.53;1.63;;;13.00;99.90;;;;;;6222763;23;20565;-92
2022/09/09 09:30:17;;;;;;;6.57;1.67;;;12.90;99.90;;;;;;6224526;23;20244;-92
2022/09/09 09:33:02;;;;;;;4.10;1.20;;;12.90;99.90;;;;;;6222982;23;20634;-92
2022/09/09 09:38:19;;;;;;;3.63;1.43;;;12.80;99.90;;;;;;6195389;23;20654;-92
2022/09/09 09:41:11;;;;;;;5.80;1.50;;;12.70;99.90;;;;;;6196428;23;20650;-93
2022/09/09 09:43:44;;;;;;;7.33;2.10;;;12.70;99.90;;;;;;6190760;23;20493;-90
2022/09/09 09:46:23;;;;;;;6.10;1.60;;;12.60;99.90;;;;;;6194152;23;20631;-90
2022/09/09 09:49:05;;;;;;;5.93;1.37;;;12.60;99.90;;;;;;6207897;23;20180;-91
2022/09/09 09:51:38;;;;;;;6.57;1.50;;;12.50;99.90;;;;;;6199428;23;20215;-91
2022/09/09 09:54:20;;;;;;;2.93;1.27;;;12.50;99.90;;;;;;6196330;23;20173;-91
2022/09/09 09:56:51;;;;;;;6.37;1.90;;;12.50;99.90;;;;;;6193434;23;20200;-91
2022/09/09 09:59:26;;;;;;;3.80;1.83;;;12.40;99.90;;;;;;6191229;23;20177;-91
2022/09/09 10:02:20;;;;;;;6.40;1.70;;;12.30;99.90;;;;;;6189206;23;20177;-91
2022/09/09 10:05:01;;;;;;;4.33;1.60;;;12.30;99.90;;;;;;6190152;23;20177;-91
2022/09/09 10:07:34;;;;;;;4.73;1.80;;;12.20;99.90;;;;;;6164573;23;20224;-92
2022/09/09 10:10:14;;;;;;;5.77;1.73;;;12.30;99.90;;;;;;6190464;23;20176;-89
2022/09/09 10:12:57;;;;;;;4.03;1.70;;;12.20;99.90;;;;;;6189321;23;20264;-91
2022/09/09 10:15:39;;;;;;;7.33;1.97;;;12.20;99.90;;;;;;6189338;23;20177;-92
2022/09/09 10:18:31;;;;;;;3.50;1.83;;;12.20;99.90;;;;;;6165081;23;20234;-91
2022/09/09 10:21:10;;;;;;;6.73;2.10;;;12.10;99.90;;;;;;6191684;23;20263;-91
2022/09/09 10:23:57;;;;;;;5.77;1.93;;;12.10;99.90;;;;;;6192046;23;20176;-91
2022/09/09 10:26:45;;;;;;;5.53;1.60;;;12.10;99.90;;;;;;6192724;23;20173;-91
2022/09/09 10:29:29;;;;;;;5.70;1.70;;;12.10;99.90;;;;;;6191225;23;20181;-91
2022/09/09 10:32:22;;;;;;;6.97;1.70;;;12.10;99.90;;;;;;6189011;23;20264;-91
2022/09/09 10:35:00;;;;;;;5.23;1.50;;;12.10;99.90;;;;;;6169191;23;20179;-91
2022/09/09 10:37:44;;;;;;;5.27;1.93;;;12.10;99.90;;;;;;6216150;23;20200;-93
2022/09/09 10:40:33;;;;;;;4.77;1.40;;;12.10;99.90;;;;;;6222995;23;20172;-91
2022/09/09 10:43:19;;;;;;;6.03;1.80;;;12.10;99.90;;;;;;6218333;23;20161;-91
2022/09/09 10:46:02;;;;;;;5.87;1.90;;;12.10;99.90;;;;;;6220061;23;20240;-92
2022/09/09 10:48:58;;;;;;;2.77;1.33;;;12.10;99.90;;;;;;6221776;23;20176;-93
2022/09/09 10:51:42;;;;;;;5.20;1.33;;;12.10;99.90;;;;;;6219190;23;20244;-93
2022/09/09 10:54:32;;;;;;;3.37;1.63;;;12.00;99.90;;;;;;6223084;23;20182;-92
2022/09/09 10:57:11;;;;;;;4.73;1.60;;;12.00;99.90;;;;;;6221367;23;20179;-91
2022/09/09 10:59:49;;;;;;;4.27;1.63;;;12.00;99.90;;;;;;6220490;23;20187;-91
2022/09/09 11:02:27;;;;;;;5.33;1.60;;;12.00;99.90;;;;;;6222194;23;20513;-92
2022/09/09 11:05:03;;;;;;;2.60;1.50;;;11.90;99.90;;;;;;6219998;23;20184;-93
2022/09/09 11:07:43;;;;;;;4.20;1.50;;;11.90;99.90;;;;;;6222504;23;20203;-91
2022/09/09 11:10:25;;;;;;;5.03;1.70;;;11.90;99.90;;;;;;6219912;23;20176;-92
2022/09/09 11:13:01;;;;;;;7.87;2.27;;;11.90;99.90;;;;;;6218386;23;20177;-92
2022/09/09 11:15:43;;;;;;;5.73;1.50;;;12.00;99.90;;;;;;6219541;23;20176;-92
2022/09/09 11:18:21;;;;;;;5.43;1.70;;;12.00;99.90;;;;;;6220171;23;20200;-93
2022/09/09 11:20:58;;;;;;;4.23;1.70;;;12.00;99.90;;;;;;6219355;23;20176;-92
2022/09/09 11:23:35;;;;;;;5.70;1.83;;;12.00;99.90;;;;;;6218613;23;20176;-93
2022/09/09 11:26:16;;;;;;;6.87;1.40;;;12.00;99.90;;;;;;6218974;23;20172;-92
2022/09/09 11:28:59;;;;;;;6.73;1.30;;;12.00;99.90;;;;;;6221191;23;20623;-92
2022/09/09 11:31:47;;;;;;;4.20;1.33;;;12.10;99.90;;;;;;6193636;23;20183;-92
2022/09/09 11:34:41;;;;;;;4.07;1.73;;;12.00;99.90;;;;;;6219093;23;20232;-92
2022/09/09 11:37:45;;;;;;;5.37;1.43;;;12.10;99.90;;;;;;6218999;23;20263;-92
2022/09/09 11:40:25;;;;;;;6.47;1.83;;;12.00;99.90;;;;;;6213883;23;20196;-92
2022/09/09 11:43:12;;;;;;;6.60;1.43;;;12.00;99.90;;;;;;6218092;23;20172;-92
2022/09/09 11:45:45;;;;;;;6.13;1.70;;;12.00;99.90;;;;;;6219816;23;20176;-92
2022/09/09 11:48:31;;;;;;;9.73;2.13;;;12.00;99.90;;;;;;6221622;23;20195;-92
2022/09/09 11:51:07;;;;;;;3.63;1.40;;;11.90;99.90;;;;;;6221919;23;20180;-92
2022/09/09 11:53:55;;;;;;;7.13;1.73;;;11.90;99.90;;;;;;6222526;23;20517;-92
2022/09/09 11:56:34;;;;;;;4.07;1.50;;;11.90;99.90;;;;;;6224361;23;20569;-91
2022/09/09 11:59:06;;;;;;;3.67;1.87;;;11.90;99.90;;;;;;6232453;23;20255;-91
2022/09/09 12:01:43;;;;;;;4.40;1.67;;;11.90;99.90;;;;;;6240152;23;20191;-93
2022/09/09 12:04:39;;;;;;;7.73;1.80;;;11.90;99.90;;;;;;6235995;23;20235;-91
2022/09/09 12:07:36;;;;;;;3.23;1.90;;;11.90;99.90;;;;;;6225039;23;20623;-91
2022/09/09 12:10:24;;;;;;;9.03;1.70;;;11.90;99.90;;;;;;6199855;23;20526;-91
2022/09/09 12:12:55;;;;;;;7.30;2.03;;;11.90;99.90;;;;;;6220503;23;20682;-90
2022/09/09 12:15:31;;;;;;;4.90;2.00;;;11.90;99.90;;;;;;6221311;23;20192;-91
2022/09/09 12:18:03;;;;;;;6.60;1.90;;;11.90;99.90;;;;;;6221628;23;20220;-91
2022/09/09 12:20:38;;;;;;;5.77;2.03;;;11.90;99.90;;;;;;6221272;23;20243;-91
2022/09/09 12:23:26;;;;;;;7.93;1.60;;;11.90;99.90;;;;;;6221560;23;20176;-93
2022/09/09 12:26:09;;;;;;;6.57;1.97;;;11.80;99.90;;;;;;6194998;23;20287;-91
2022/09/09 12:28:52;;;;;;;5.23;1.93;;;11.80;99.90;;;;;;6220855;23;20634;-91
2022/09/09 12:31:32;;;;;;;6.73;1.80;;;11.80;99.90;;;;;;6222405;23;20176;-91
2022/09/09 12:34:13;;;;;;;5.13;1.93;;;11.90;99.90;;;;;;6222358;23;20492;-91
2022/09/09 12:36:52;;;;;;;6.13;2.17;;;11.80;99.90;;;;;;6220961;23;20512;-91
2022/09/09 12:39:35;;;;;;;8.67;1.97;;;11.90;99.90;;;;;;6221276;23;20188;-91
2022/09/09 12:42:07;;;;;;;6.87;2.17;;;11.80;99.90;;;;;;6221292;23;20172;-92
2022/09/09 12:44:40;;;;;;;7.07;2.67;;;11.80;99.90;;;;;;6222095;23;20179;-90
2022/09/09 12:47:15;;;;;;;7.47;2.30;;;11.80;99.90;;;;;;6222896;23;20210;-91
2022/09/09 12:49:49;;;;;;;6.57;2.20;;;11.80;99.90;;;;;;6222979;23;20176;-91
2022/09/09 12:52:29;;;;;;;9.23;2.50;;;11.80;99.90;;;;;;6221790;23;20172;-91
2022/09/09 12:55:03;;;;;;;5.33;2.03;;;11.70;99.90;;;;;;6223187;23;20657;-92
2022/09/09 12:57:38;;;;;;;7.80;2.20;;;11.70;99.90;;;;;;6225053;23;20212;-92
2022/09/09 13:00:15;;;;;;;10.00;2.40;;;11.70;99.90;;;;;;6240738;23;20202;-91
2022/09/09 13:02:52;;;;;;;6.57;2.00;;;11.70;99.90;;;;;;6241611;23;20163;-92
2022/09/09 13:05:28;;;;;;;4.53;1.93;;;11.70;99.90;;;;;;6241921;23;20172;-93
2022/09/09 13:08:07;;;;;;;6.63;2.57;;;11.70;99.90;;;;;;6242577;23;20171;-91
2022/09/09 13:10:42;;;;;;;5.93;2.37;;;11.70;99.90;;;;;;6242246;23;20175;-92
2022/09/09 13:13:37;;;;;;;8.07;2.37;;;11.70;99.90;;;;;;6241071;23;20168;-92
2022/09/09 13:16:21;;;;;;;7.73;2.10;;;11.60;99.90;;;;;;6242148;23;20160;-92
2022/09/09 13:18:55;;;;;;;5.93;2.17;;;11.60;99.90;;;;;;6241865;23;20244;-93
2022/09/09 13:21:38;;;;;;;6.80;2.40;;;11.60;99.90;;;;;;6242150;23;20164;-94
2022/09/09 13:24:30;;;;;;;6.97;2.73;;;11.60;99.90;;;;;;6242117;23;20175;-92
2022/09/09 13:27:04;;;;;;;11.80;2.80;;;11.60;99.90;;;;;;6241893;23;20237;-92
2022/09/09 13:29:35;;;;;;;7.00;2.57;;;11.60;99.90;;;;;;6240668;23;20232;-92
2022/09/09 13:32:15;;;;;;;10.27;2.57;;;11.60;99.90;;;;;;6229825;23;20207;-92
2022/09/09 13:34:54;;;;;;;6.60;1.93;;;11.60;99.90;;;;;;6222950;23;20172;-93
2022/09/09 13:37:35;;;;;;;7.33;2.30;;;11.60;99.90;;;;;;6223113;23;20191;-92
2022/09/09 13:40:22;;;;;;;7.00;2.13;;;11.50;99.90;;;;;;6222183;23;20204;-92
2022/09/09 13:42:58;;;;;;;5.17;2.40;;;11.50;99.90;;;;;;6220455;23;20255;-93
2022/09/09 13:45:29;;;;;;;9.53;2.63;;;11.50;99.90;;;;;;6220738;23;20172;-92
2022/09/09 13:48:13;;;;;;;9.27;2.67;;;11.50;99.90;;;;;;6221008;23;20228;-92
2022/09/09 13:50:55;;;;;;;7.27;2.70;;;11.50;99.90;;;;;;6194891;23;20176;-92
2022/09/09 13:53:26;;;;;;;9.53;2.57;;;11.50;99.90;;;;;;6219839;23;20179;-93
2022/09/09 13:56:01;;;;;;;10.07;3.03;;;11.50;99.90;;;;;;6220506;23;20176;-91
2022/09/09 13:58:32;;;;;;;9.77;2.77;;;11.50;99.90;;;;;;6220573;23;20182;-91
2022/09/09 14:01:04;;;;;;;6.53;2.77;;;11.50;99.90;;;;;;6227174;23;20165;-92
2022/09/09 14:03:35;;;;;;;9.87;2.30;;;11.50;99.90;;;;;;6220032;23;20180;-92
2022/09/09 14:06:07;;;;;;;11.53;2.73;;;11.50;99.90;;;;;;6222690;23;20327;-92